world map with TLS marked

TLS - Airport

This information may not be accurate or current and is not valid for navigation or flight planning. No warranty of fitness for any purpose is made or implied.

flag of Midi-Pyrénéesflag of France

Donate via PayPal

Additional information is available on the NEW Great Circle Mapper

Location
City:  Toulouse, Midi-Pyrénées, France
Name:Blagnac
ICAO / IATA:LFBO / TLS

Details
Type:Airport (Aerodrome, Airfield)
Use:Public/Civil
Latitude:43°38'06"N (43.635000)
Longitude:1°22'04"E (1.367778)
Elevation:499 ft (152 m)
Runways:2
Longest:11483 × 148 ft (3500 × 45 m)

Time
Timezone:UTC+1 (DST+4)
Local Time:

Weather
METAR:LFBO  262130Z AUTO 00000KT CAVOK 15/10 Q1022 NOSIG
TAF:LFBO  261700Z 2618/2724 VRB02KT CAVOK PROB30 TEMPO 2705/2707 4000 BR BECMG 2708/2710 14010KT

Related Locations
Nearby:
Farthest:CHT: 12331 mi / 19845 km
Waitangi [Tuuta], CIT, NZ

Find:

   beyond  
but within

Other Information
Maps:
Sources:

  


 


Great Circle Mapper   Great Circle Mapper
Great Circle Mapper FAQ   Great Circle Mapper FAQ
  Karl's Home Page
KLS²   KLS² Home
   GC on Facebook
Airlines of the World   Airlines of the World
Donate via PayPal


Copyright © 2004-2017, Karl L. Swartz. All rights reserved.
All trademarks mentioned herein belong to their respective owners.

Please see credits for attribution and copyright information.

Karl Swartz <karl@kls2.com>
  Powered by FreeBSD
Valid HTML 4.01!
Labeled with ICRA
hCard Microformat
Geo Microformat